sensor_id;sensor_type;location;lat;lon;timestamp;temperature;humidity
13798;DHT22;6970;51.340;3.240;2023-01-19T00:00:54;5.90;99.90
13798;DHT22;6970;51.340;3.240;2023-01-19T00:03:21;5.80;99.90
13798;DHT22;6970;51.340;3.240;2023-01-19T00:05:48;5.80;99.90
13798;DHT22;6970;51.340;3.240;2023-01-19T00:08:15;5.80;99.90
13798;DHT22;6970;51.340;3.240;2023-01-19T00:10:47;5.80;99.90
13798;DHT22;6970;51.340;3.240;2023-01-19T00:13:16;5.90;99.90
13798;DHT22;6970;51.340;3.240;2023-01-19T00:15:43;5.90;99.90
13798;DHT22;6970;51.340;3.240;2023-01-19T00:18:10;5.90;99.90
13798;DHT22;6970;51.340;3.240;2023-01-19T00:20:38;5.90;99.90
13798;DHT22;6970;51.340;3.240;2023-01-19T00:23:06;5.90;99.90
13798;DHT22;6970;51.340;3.240;2023-01-19T00:25:34;5.90;99.90
13798;DHT22;6970;51.340;3.240;2023-01-19T00:28:01;5.90;99.90
13798;DHT22;6970;51.340;3.240;2023-01-19T00:30:28;5.90;99.90
13798;DHT22;6970;51.340;3.240;2023-01-19T00:32:56;5.80;99.90
13798;DHT22;6970;51.340;3.240;2023-01-19T00:35:23;5.80;99.90
13798;DHT22;6970;51.340;3.240;2023-01-19T00:37:50;5.80;99.90
13798;DHT22;6970;51.340;3.240;2023-01-19T00:40:17;5.80;99.90
13798;DHT22;6970;51.340;3.240;2023-01-19T00:42:44;5.80;99.90
13798;DHT22;6970;51.340;3.240;2023-01-19T00:45:16;5.90;99.90
13798;DHT22;6970;51.340;3.240;2023-01-19T00:47:45;5.90;99.90
13798;DHT22;6970;51.340;3.240;2023-01-19T00:50:15;5.90;99.90
13798;DHT22;6970;51.340;3.240;2023-01-19T00:52:45;5.90;99.90
13798;DHT22;6970;51.340;3.240;2023-01-19T00:55:14;5.90;99.90
13798;DHT22;6970;51.340;3.240;2023-01-19T00:57:42;5.90;99.90
13798;DHT22;6970;51.340;3.240;2023-01-19T01:00:11;5.90;99.90
13798;DHT22;6970;51.340;3.240;2023-01-19T01:02:39;5.90;99.90
13798;DHT22;6970;51.340;3.240;2023-01-19T01:05:08;5.90;99.90
13798;DHT22;6970;51.340;3.240;2023-01-19T01:07:35;5.90;99.90
13798;DHT22;6970;51.340;3.240;2023-01-19T01:10:17;5.90;99.90
13798;DHT22;6970;51.340;3.240;2023-01-19T01:12:45;5.90;99.90
13798;DHT22;6970;51.340;3.240;2023-01-19T01:15:32;5.90;99.90
13798;DHT22;6970;51.340;3.240;2023-01-19T01:18:01;5.90;99.90
13798;DHT22;6970;51.340;3.240;2023-01-19T01:20:28;5.90;99.90
13798;DHT22;6970;51.340;3.240;2023-01-19T01:22:56;5.90;99.90
13798;DHT22;6970;51.340;3.240;2023-01-19T01:25:26;6.00;99.90
13798;DHT22;6970;51.340;3.240;2023-01-19T01:27:53;5.90;99.90
13798;DHT22;6970;51.340;3.240;2023-01-19T01:30:21;6.00;99.90
13798;DHT22;6970;51.340;3.240;2023-01-19T01:32:48;6.00;99.90
13798;DHT22;6970;51.340;3.240;2023-01-19T01:35:15;6.00;99.90
13798;DHT22;6970;51.340;3.240;2023-01-19T01:37:42;6.00;99.90
13798;DHT22;6970;51.340;3.240;2023-01-19T01:40:12;6.00;99.90
13798;DHT22;6970;51.340;3.240;2023-01-19T01:42:40;6.00;99.90
13798;DHT22;6970;51.340;3.240;2023-01-19T01:45:37;6.00;99.90
13798;DHT22;6970;51.340;3.240;2023-01-19T01:48:11;6.00;99.90
13798;DHT22;6970;51.340;3.240;2023-01-19T01:50:49;6.00;99.90
13798;DHT22;6970;51.340;3.240;2023-01-19T01:53:36;6.00;99.90
13798;DHT22;6970;51.340;3.240;2023-01-19T01:56:10;6.00;99.90
13798;DHT22;6970;51.340;3.240;2023-01-19T01:58:38;6.00;99.90
13798;DHT22;6970;51.340;3.240;2023-01-19T02:01:06;6.00;99.90
13798;DHT22;6970;51.340;3.240;2023-01-19T02:03:55;6.00;99.90
13798;DHT22;6970;51.340;3.240;2023-01-19T02:06:23;6.00;99.90
13798;DHT22;6970;51.340;3.240;2023-01-19T02:08:58;6.00;99.90
13798;DHT22;6970;51.340;3.240;2023-01-19T02:11:46;6.00;99.90
13798;DHT22;6970;51.340;3.240;2023-01-19T02:14:31;6.10;99.90
13798;DHT22;6970;51.340;3.240;2023-01-19T02:17:00;6.10;99.90
13798;DHT22;6970;51.340;3.240;2023-01-19T02:19:35;6.10;99.90
13798;DHT22;6970;51.340;3.240;2023-01-19T02:22:10;6.10;99.90
13798;DHT22;6970;51.340;3.240;2023-01-19T02:24:40;6.00;99.90
13798;DHT22;6970;51.340;3.240;2023-01-19T02:27:07;6.00;99.90
13798;DHT22;6970;51.340;3.240;2023-01-19T02:29:35;6.00;99.90
13798;DHT22;6970;51.340;3.240;2023-01-19T02:32:03;6.00;99.90
13798;DHT22;6970;51.340;3.240;2023-01-19T02:34:31;5.90;99.90
13798;DHT22;6970;51.340;3.240;2023-01-19T02:37:02;5.90;99.90
13798;DHT22;6970;51.340;3.240;2023-01-19T02:39:44;5.90;99.90
13798;DHT22;6970;51.340;3.240;2023-01-19T02:42:16;5.80;99.90
13798;DHT22;6970;51.340;3.240;2023-01-19T02:44:47;5.90;99.90
13798;DHT22;6970;51.340;3.240;2023-01-19T02:47:15;5.90;99.90
13798;DHT22;6970;51.340;3.240;2023-01-19T02:49:42;5.90;99.90
13798;DHT22;6970;51.340;3.240;2023-01-19T02:52:18;5.90;99.90
13798;DHT22;6970;51.340;3.240;2023-01-19T03:06:04;5.80;99.90
13798;DHT22;6970;51.340;3.240;2023-01-19T03:08:54;5.70;99.90
13798;DHT22;6970;51.340;3.240;2023-01-19T03:11:26;5.70;99.90
13798;DHT22;6970;51.340;3.240;2023-01-19T03:14:18;5.70;99.90
13798;DHT22;6970;51.340;3.240;2023-01-19T03:16:52;5.70;99.90
13798;DHT22;6970;51.340;3.240;2023-01-19T03:19:22;5.70;99.90
13798;DHT22;6970;51.340;3.240;2023-01-19T03:21:58;5.60;99.90
13798;DHT22;6970;51.340;3.240;2023-01-19T03:24:30;5.60;99.90
13798;DHT22;6970;51.340;3.240;2023-01-19T03:27:05;5.60;99.90
13798;DHT22;6970;51.340;3.240;2023-01-19T03:29:36;5.60;99.90
13798;DHT22;6970;51.340;3.240;2023-01-19T03:32:12;5.60;99.90
13798;DHT22;6970;51.340;3.240;2023-01-19T03:34:42;5.60;99.90
13798;DHT22;6970;51.340;3.240;2023-01-19T03:37:10;5.60;99.90
13798;DHT22;6970;51.340;3.240;2023-01-19T03:39:39;5.70;99.90
13798;DHT22;6970;51.340;3.240;2023-01-19T03:42:11;5.70;99.90
13798;DHT22;6970;51.340;3.240;2023-01-19T03:44:40;5.70;99.90
13798;DHT22;6970;51.340;3.240;2023-01-19T03:47:10;5.70;99.90
13798;DHT22;6970;51.340;3.240;2023-01-19T03:49:38;5.70;99.90
13798;DHT22;6970;51.340;3.240;2023-01-19T03:52:07;5.70;99.90
13798;DHT22;6970;51.340;3.240;2023-01-19T03:54:34;5.60;99.90
13798;DHT22;6970;51.340;3.240;2023-01-19T03:57:01;5.60;99.90
13798;DHT22;6970;51.340;3.240;2023-01-19T03:59:28;5.60;99.90
13798;DHT22;6970;51.340;3.240;2023-01-19T04:01:55;5.60;99.90
13798;DHT22;6970;51.340;3.240;2023-01-19T04:04:22;5.50;99.90
13798;DHT22;6970;51.340;3.240;2023-01-19T04:06:51;5.60;99.90
13798;DHT22;6970;51.340;3.240;2023-01-19T04:09:18;5.60;99.90
13798;DHT22;6970;51.340;3.240;2023-01-19T04:11:45;5.60;99.90
13798;DHT22;6970;51.340;3.240;2023-01-19T04:14:12;5.60;99.90
13798;DHT22;6970;51.340;3.240;2023-01-19T04:16:39;5.70;99.90
13798;DHT22;6970;51.340;3.240;2023-01-19T04:19:06;5.70;99.90
13798;DHT22;6970;51.340;3.240;2023-01-19T04:21:33;5.60;99.90
13798;DHT22;6970;51.340;3.240;2023-01-19T04:24:01;5.60;99.90
13798;DHT22;6970;51.340;3.240;2023-01-19T04:26:28;5.60;99.90
13798;DHT22;6970;51.340;3.240;2023-01-19T04:28:56;5.60;99.90
13798;DHT22;6970;51.340;3.240;2023-01-19T04:31:23;5.60;99.90
13798;DHT22;6970;51.340;3.240;2023-01-19T04:33:50;5.60;99.90
13798;DHT22;6970;51.340;3.240;2023-01-19T04:36:17;5.60;99.90
13798;DHT22;6970;51.340;3.240;2023-01-19T04:38:44;5.60;99.90
13798;DHT22;6970;51.340;3.240;2023-01-19T04:41:12;5.60;99.90
13798;DHT22;6970;51.340;3.240;2023-01-19T04:43:39;5.60;99.90
13798;DHT22;6970;51.340;3.240;2023-01-19T04:46:06;5.60;99.90
13798;DHT22;6970;51.340;3.240;2023-01-19T04:48:33;5.60;99.90
13798;DHT22;6970;51.340;3.240;2023-01-19T04:51:00;5.60;99.90
13798;DHT22;6970;51.340;3.240;2023-01-19T04:53:27;5.50;99.90
13798;DHT22;6970;51.340;3.240;2023-01-19T04:55:54;5.50;99.90
13798;DHT22;6970;51.340;3.240;2023-01-19T04:58:21;5.50;99.90
13798;DHT22;6970;51.340;3.240;2023-01-19T05:00:48;5.50;99.90
13798;DHT22;6970;51.340;3.240;2023-01-19T05:03:17;5.40;99.90
13798;DHT22;6970;51.340;3.240;2023-01-19T05:05:45;5.40;99.90
13798;DHT22;6970;51.340;3.240;2023-01-19T05:08:12;5.40;99.90
13798;DHT22;6970;51.340;3.240;2023-01-19T05:10:40;5.50;99.90
13798;DHT22;6970;51.340;3.240;2023-01-19T05:13:07;5.50;99.90
13798;DHT22;6970;51.340;3.240;2023-01-19T05:15:34;5.50;99.90
13798;DHT22;6970;51.340;3.240;2023-01-19T05:18:01;5.50;99.90
13798;DHT22;6970;51.340;3.240;2023-01-19T05:20:28;5.50;99.90
13798;DHT22;6970;51.340;3.240;2023-01-19T05:22:55;5.60;99.90
13798;DHT22;6970;51.340;3.240;2023-01-19T05:25:22;5.60;99.90
13798;DHT22;6970;51.340;3.240;2023-01-19T05:27:49;5.70;99.90
13798;DHT22;6970;51.340;3.240;2023-01-19T05:30:16;5.70;99.90
13798;DHT22;6970;51.340;3.240;2023-01-19T05:32:43;5.70;99.90
13798;DHT22;6970;51.340;3.240;2023-01-19T05:35:10;5.70;99.90
13798;DHT22;6970;51.340;3.240;2023-01-19T05:37:39;5.70;99.90
13798;DHT22;6970;51.340;3.240;2023-01-19T05:40:07;5.70;99.90
13798;DHT22;6970;51.340;3.240;2023-01-19T05:42:35;5.70;99.90
13798;DHT22;6970;51.340;3.240;2023-01-19T05:45:03;5.70;99.90
13798;DHT22;6970;51.340;3.240;2023-01-19T05:47:30;5.70;99.90
13798;DHT22;6970;51.340;3.240;2023-01-19T05:49:57;5.60;99.90
13798;DHT22;6970;51.340;3.240;2023-01-19T05:52:24;5.60;99.90
13798;DHT22;6970;51.340;3.240;2023-01-19T05:54:52;5.60;99.90
13798;DHT22;6970;51.340;3.240;2023-01-19T05:57:21;5.60;99.90
13798;DHT22;6970;51.340;3.240;2023-01-19T05:59:48;5.60;99.90
13798;DHT22;6970;51.340;3.240;2023-01-19T06:02:15;5.60;99.90
13798;DHT22;6970;51.340;3.240;2023-01-19T06:04:42;5.60;99.90
13798;DHT22;6970;51.340;3.240;2023-01-19T06:07:09;5.60;99.90
13798;DHT22;6970;51.340;3.240;2023-01-19T06:09:36;5.60;99.90
13798;DHT22;6970;51.340;3.240;2023-01-19T06:12:03;5.60;99.90
13798;DHT22;6970;51.340;3.240;2023-01-19T06:14:30;5.60;99.90
13798;DHT22;6970;51.340;3.240;2023-01-19T06:16:59;5.60;99.90
13798;DHT22;6970;51.340;3.240;2023-01-19T06:19:26;5.60;99.90
13798;DHT22;6970;51.340;3.240;2023-01-19T06:21:53;5.60;99.90
13798;DHT22;6970;51.340;3.240;2023-01-19T06:24:20;5.60;99.90
13798;DHT22;6970;51.340;3.240;2023-01-19T06:26:47;5.60;99.90
13798;DHT22;6970;51.340;3.240;2023-01-19T06:29:15;5.70;99.90
13798;DHT22;6970;51.340;3.240;2023-01-19T06:31:42;5.70;99.90
13798;DHT22;6970;51.340;3.240;2023-01-19T06:34:09;5.70;99.90
13798;DHT22;6970;51.340;3.240;2023-01-19T06:36:36;5.70;99.90
13798;DHT22;6970;51.340;3.240;2023-01-19T06:39:04;5.70;99.90
13798;DHT22;6970;51.340;3.240;2023-01-19T06:41:32;5.70;99.90
13798;DHT22;6970;51.340;3.240;2023-01-19T06:43:59;5.70;99.90
13798;DHT22;6970;51.340;3.240;2023-01-19T06:46:26;5.70;99.90
13798;DHT22;6970;51.340;3.240;2023-01-19T06:48:53;5.70;99.90
13798;DHT22;6970;51.340;3.240;2023-01-19T06:51:21;5.70;99.90
13798;DHT22;6970;51.340;3.240;2023-01-19T06:53:49;5.60;99.90
13798;DHT22;6970;51.340;3.240;2023-01-19T06:56:16;5.70;99.90
13798;DHT22;6970;51.340;3.240;2023-01-19T06:58:45;5.70;99.90
13798;DHT22;6970;51.340;3.240;2023-01-19T07:01:12;5.60;99.90
13798;DHT22;6970;51.340;3.240;2023-01-19T07:03:39;5.60;99.90
13798;DHT22;6970;51.340;3.240;2023-01-19T07:06:07;5.60;99.90
13798;DHT22;6970;51.340;3.240;2023-01-19T07:08:35;5.60;99.90
13798;DHT22;6970;51.340;3.240;2023-01-19T07:11:04;5.60;99.90
13798;DHT22;6970;51.340;3.240;2023-01-19T07:13:53;5.60;99.90
13798;DHT22;6970;51.340;3.240;2023-01-19T07:16:22;5.60;99.90
13798;DHT22;6970;51.340;3.240;2023-01-19T07:18:49;5.50;99.90
13798;DHT22;6970;51.340;3.240;2023-01-19T07:21:18;5.50;99.90
13798;DHT22;6970;51.340;3.240;2023-01-19T07:23:52;5.50;99.90
13798;DHT22;6970;51.340;3.240;2023-01-19T07:26:21;5.50;99.90
13798;DHT22;6970;51.340;3.240;2023-01-19T07:28:51;5.50;99.90
13798;DHT22;6970;51.340;3.240;2023-01-19T07:31:18;5.50;99.90
13798;DHT22;6970;51.340;3.240;2023-01-19T07:33:48;5.50;99.90
13798;DHT22;6970;51.340;3.240;2023-01-19T07:36:15;5.50;99.90
13798;DHT22;6970;51.340;3.240;2023-01-19T07:38:45;5.50;99.90
13798;DHT22;6970;51.340;3.240;2023-01-19T07:41:14;5.50;99.90
13798;DHT22;6970;51.340;3.240;2023-01-19T07:43:41;5.50;99.90
13798;DHT22;6970;51.340;3.240;2023-01-19T07:46:08;5.50;99.90
13798;DHT22;6970;51.340;3.240;2023-01-19T07:48:35;5.50;99.90
13798;DHT22;6970;51.340;3.240;2023-01-19T07:51:04;5.50;99.90
13798;DHT22;6970;51.340;3.240;2023-01-19T07:53:41;5.50;99.90
13798;DHT22;6970;51.340;3.240;2023-01-19T07:56:08;5.50;99.90
13798;DHT22;6970;51.340;3.240;2023-01-19T07:58:36;5.40;99.90
13798;DHT22;6970;51.340;3.240;2023-01-19T08:01:07;5.40;99.90
13798;DHT22;6970;51.340;3.240;2023-01-19T08:03:36;5.40;99.90
13798;DHT22;6970;51.340;3.240;2023-01-19T08:06:06;5.50;99.90
13798;DHT22;6970;51.340;3.240;2023-01-19T08:08:39;5.50;99.90
13798;DHT22;6970;51.340;3.240;2023-01-19T08:11:07;5.50;99.90
13798;DHT22;6970;51.340;3.240;2023-01-19T08:13:34;5.50;99.90
13798;DHT22;6970;51.340;3.240;2023-01-19T08:16:03;5.50;99.90
13798;DHT22;6970;51.340;3.240;2023-01-19T08:18:30;5.60;99.90
13798;DHT22;6970;51.340;3.240;2023-01-19T08:20:58;5.70;99.90
13798;DHT22;6970;51.340;3.240;2023-01-19T08:23:28;5.80;99.90
13798;DHT22;6970;51.340;3.240;2023-01-19T08:25:55;5.90;99.90
13798;DHT22;6970;51.340;3.240;2023-01-19T08:28:22;5.90;99.90
13798;DHT22;6970;51.340;3.240;2023-01-19T08:30:53;6.00;99.90
13798;DHT22;6970;51.340;3.240;2023-01-19T08:33:22;6.00;99.90
13798;DHT22;6970;51.340;3.240;2023-01-19T08:35:52;6.10;99.90
13798;DHT22;6970;51.340;3.240;2023-01-19T08:38:20;6.10;99.90
13798;DHT22;6970;51.340;3.240;2023-01-19T08:40:47;6.20;99.90
13798;DHT22;6970;51.340;3.240;2023-01-19T08:43:17;6.80;99.90
13798;DHT22;6970;51.340;3.240;2023-01-19T08:45:49;7.70;99.90
13798;DHT22;6970;51.340;3.240;2023-01-19T08:48:20;8.70;99.90
13798;DHT22;6970;51.340;3.240;2023-01-19T08:50:52;9.70;99.90
13798;DHT22;6970;51.340;3.240;2023-01-19T08:53:19;10.70;99.90
13798;DHT22;6970;51.340;3.240;2023-01-19T08:55:49;11.40;99.90
13798;DHT22;6970;51.340;3.240;2023-01-19T08:58:20;11.40;99.90
13798;DHT22;6970;51.340;3.240;2023-01-19T09:00:50;11.00;99.90
13798;DHT22;6970;51.340;3.240;2023-01-19T09:03:19;11.40;99.90
13798;DHT22;6970;51.340;3.240;2023-01-19T09:05:48;12.00;99.90
13798;DHT22;6970;51.340;3.240;2023-01-19T09:08:17;12.50;99.80
13798;DHT22;6970;51.340;3.240;2023-01-19T09:10:47;12.30;99.10
13798;DHT22;6970;51.340;3.240;2023-01-19T09:13:17;12.40;98.80
13798;DHT22;6970;51.340;3.240;2023-01-19T09:15:52;12.20;98.10
13798;DHT22;6970;51.340;3.240;2023-01-19T09:18:21;11.80;97.80
13798;DHT22;6970;51.340;3.240;2023-01-19T09:20:49;11.30;97.50
13798;DHT22;6970;51.340;3.240;2023-01-19T09:23:18;10.80;98.50
13798;DHT22;6970;51.340;3.240;2023-01-19T09:25:46;10.60;99.90
13798;DHT22;6970;51.340;3.240;2023-01-19T09:28:15;11.70;99.90
13798;DHT22;6970;51.340;3.240;2023-01-19T09:30:45;13.10;99.90
13798;DHT22;6970;51.340;3.240;2023-01-19T09:33:15;14.40;98.20
13798;DHT22;6970;51.340;3.240;2023-01-19T09:35:43;15.70;95.90
13798;DHT22;6970;51.340;3.240;2023-01-19T09:38:11;16.90;93.60
13798;DHT22;6970;51.340;3.240;2023-01-19T09:40:48;17.80;91.40
13798;DHT22;6970;51.340;3.240;2023-01-19T09:43:17;18.90;90.00
13798;DHT22;6970;51.340;3.240;2023-01-19T09:46:11;19.70;86.20
13798;DHT22;6970;51.340;3.240;2023-01-19T09:51:21;20.50;79.60
13798;DHT22;6970;51.340;3.240;2023-01-19T09:56:35;20.50;78.00
13798;DHT22;6970;51.340;3.240;2023-01-19T09:59:21;20.00;77.20
13798;DHT22;6970;51.340;3.240;2023-01-19T10:02:01;20.10;78.50
13798;DHT22;6970;51.340;3.240;2023-01-19T10:04:40;20.60;77.90
13798;DHT22;6970;51.340;3.240;2023-01-19T10:09:59;21.50;73.50
13798;DHT22;6970;51.340;3.240;2023-01-19T10:15:47;21.60;72.30
13798;DHT22;6970;51.340;3.240;2023-01-19T10:18:22;22.00;70.00
13798;DHT22;6970;51.340;3.240;2023-01-19T10:23:54;22.20;69.70
13798;DHT22;6970;51.340;3.240;2023-01-19T10:26:41;22.40;68.00
13798;DHT22;6970;51.340;3.240;2023-01-19T10:29:32;22.00;66.70
13798;DHT22;6970;51.340;3.240;2023-01-19T10:32:07;21.00;67.90
13798;DHT22;6970;51.340;3.240;2023-01-19T10:34:36;19.80;71.40
13798;DHT22;6970;51.340;3.240;2023-01-19T10:42:41;17.50;75.50
13798;DHT22;6970;51.340;3.240;2023-01-19T10:45:19;17.20;79.40
13798;DHT22;6970;51.340;3.240;2023-01-19T10:47:47;17.20;77.90
13798;DHT22;6970;51.340;3.240;2023-01-19T10:52:59;16.00;81.70
13798;DHT22;6970;51.340;3.240;2023-01-19T10:55:33;16.20;81.90
13798;DHT22;6970;51.340;3.240;2023-01-19T10:58:01;16.40;80.60
13798;DHT22;6970;51.340;3.240;2023-01-19T11:03:00;15.40;82.00
13798;DHT22;6970;51.340;3.240;2023-01-19T11:05:31;14.60;83.80
13798;DHT22;6970;51.340;3.240;2023-01-19T11:08:29;14.60;87.00
13798;DHT22;6970;51.340;3.240;2023-01-19T11:11:02;15.10;86.60
13798;DHT22;6970;51.340;3.240;2023-01-19T11:13:35;15.30;84.40
13798;DHT22;6970;51.340;3.240;2023-01-19T11:16:05;14.70;84.50
13798;DHT22;6970;51.340;3.240;2023-01-19T11:18:39;14.60;87.70
13798;DHT22;6970;51.340;3.240;2023-01-19T11:21:12;15.40;89.00
13798;DHT22;6970;51.340;3.240;2023-01-19T11:23:47;16.40;86.30
13798;DHT22;6970;51.340;3.240;2023-01-19T11:26:29;17.00;83.00
13798;DHT22;6970;51.340;3.240;2023-01-19T11:29:01;17.40;82.30
13798;DHT22;6970;51.340;3.240;2023-01-19T11:36:30;17.00;79.30
13798;DHT22;6970;51.340;3.240;2023-01-19T11:39:20;16.20;79.50
13798;DHT22;6970;51.340;3.240;2023-01-19T11:41:54;15.50;81.30
13798;DHT22;6970;51.340;3.240;2023-01-19T11:44:29;14.70;82.10
13798;DHT22;6970;51.340;3.240;2023-01-19T11:47:02;14.00;82.10
13798;DHT22;6970;51.340;3.240;2023-01-19T11:49:43;13.30;83.10
13798;DHT22;6970;51.340;3.240;2023-01-19T11:52:30;12.80;84.70
13798;DHT22;6970;51.340;3.240;2023-01-19T11:57:49;12.60;86.10
13798;DHT22;6970;51.340;3.240;2023-01-19T12:03:21;12.90;84.90
13798;DHT22;6970;51.340;3.240;2023-01-19T12:05:53;12.70;83.80
13798;DHT22;6970;51.340;3.240;2023-01-19T12:08:36;12.50;84.80
13798;DHT22;6970;51.340;3.240;2023-01-19T12:11:08;12.30;86.10
13798;DHT22;6970;51.340;3.240;2023-01-19T12:13:38;12.40;87.40
13798;DHT22;6970;51.340;3.240;2023-01-19T12:16:29;12.60;86.90
13798;DHT22;6970;51.340;3.240;2023-01-19T12:19:00;12.80;86.40
13798;DHT22;6970;51.340;3.240;2023-01-19T12:21:29;12.80;86.10
13798;DHT22;6970;51.340;3.240;2023-01-19T12:24:22;12.80;84.60
13798;DHT22;6970;51.340;3.240;2023-01-19T12:26:56;12.90;85.70
13798;DHT22;6970;51.340;3.240;2023-01-19T12:29:28;13.00;84.90
13798;DHT22;6970;51.340;3.240;2023-01-19T12:34:58;12.10;84.90
13798;DHT22;6970;51.340;3.240;2023-01-19T12:40:03;11.20;87.30
13798;DHT22;6970;51.340;3.240;2023-01-19T12:42:33;11.00;88.40
13798;DHT22;6970;51.340;3.240;2023-01-19T12:45:06;11.10;89.40
13798;DHT22;6970;51.340;3.240;2023-01-19T12:47:35;11.30;89.10
13798;DHT22;6970;51.340;3.240;2023-01-19T12:50:10;11.70;90.00
13798;DHT22;6970;51.340;3.240;2023-01-19T12:52:53;11.90;88.50
13798;DHT22;6970;51.340;3.240;2023-01-19T12:55:29;12.00;87.20
13798;DHT22;6970;51.340;3.240;2023-01-19T12:58:03;12.30;86.80
13798;DHT22;6970;51.340;3.240;2023-01-19T13:00:38;12.20;87.40
13798;DHT22;6970;51.340;3.240;2023-01-19T13:13:24;12.70;84.40
13798;DHT22;6970;51.340;3.240;2023-01-19T13:15:51;12.80;84.60
13798;DHT22;6970;51.340;3.240;2023-01-19T13:18:32;12.90;83.60
13798;DHT22;6970;51.340;3.240;2023-01-19T13:21:08;12.80;83.70
13798;DHT22;6970;51.340;3.240;2023-01-19T13:29:38;12.90;83.50
13798;DHT22;6970;51.340;3.240;2023-01-19T13:32:16;13.00;82.60
13798;DHT22;6970;51.340;3.240;2023-01-19T13:34:52;13.00;82.50
13798;DHT22;6970;51.340;3.240;2023-01-19T13:37:33;12.70;82.40
13798;DHT22;6970;51.340;3.240;2023-01-19T13:40:01;12.40;83.00
13798;DHT22;6970;51.340;3.240;2023-01-19T13:42:33;12.20;83.50
13798;DHT22;6970;51.340;3.240;2023-01-19T13:45:47;12.00;84.20
13798;DHT22;6970;51.340;3.240;2023-01-19T13:47:57;11.80;84.40
13798;DHT22;6970;51.340;3.240;2023-01-19T13:52:53;11.40;84.90
13798;DHT22;6970;51.340;3.240;2023-01-19T13:55:26;11.30;84.80
13798;DHT22;6970;51.340;3.240;2023-01-19T13:57:54;11.30;85.60
13798;DHT22;6970;51.340;3.240;2023-01-19T14:00:27;11.30;85.50
13798;DHT22;6970;51.340;3.240;2023-01-19T14:03:15;11.30;85.90
13798;DHT22;6970;51.340;3.240;2023-01-19T14:05:44;11.30;86.50
13798;DHT22;6970;51.340;3.240;2023-01-19T14:08:13;11.20;87.10
13798;DHT22;6970;51.340;3.240;2023-01-19T14:10:44;11.20;87.50
13798;DHT22;6970;51.340;3.240;2023-01-19T14:15:45;11.40;87.00
13798;DHT22;6970;51.340;3.240;2023-01-19T14:20:40;11.40;85.30
13798;DHT22;6970;51.340;3.240;2023-01-19T14:23:50;11.50;85.40
13798;DHT22;6970;51.340;3.240;2023-01-19T14:34:41;11.60;84.70
13798;DHT22;6970;51.340;3.240;2023-01-19T14:37:26;11.60;83.30
13798;DHT22;6970;51.340;3.240;2023-01-19T14:42:31;11.40;81.70
13798;DHT22;6970;51.340;3.240;2023-01-19T14:45:00;11.40;81.50
13798;DHT22;6970;51.340;3.240;2023-01-19T14:47:36;11.20;81.30
13798;DHT22;6970;51.340;3.240;2023-01-19T14:50:23;11.00;81.30
13798;DHT22;6970;51.340;3.240;2023-01-19T14:52:57;10.70;81.90
13798;DHT22;6970;51.340;3.240;2023-01-19T14:55:35;10.50;82.40
13798;DHT22;6970;51.340;3.240;2023-01-19T14:58:15;10.20;83.20
13798;DHT22;6970;51.340;3.240;2023-01-19T15:00:45;10.00;85.00
13798;DHT22;6970;51.340;3.240;2023-01-19T15:03:13;9.80;85.90
13798;DHT22;6970;51.340;3.240;2023-01-19T15:05:45;9.60;87.00
13798;DHT22;6970;51.340;3.240;2023-01-19T15:08:21;9.30;87.60
13798;DHT22;6970;51.340;3.240;2023-01-19T15:10:50;9.20;87.90
13798;DHT22;6970;51.340;3.240;2023-01-19T15:13:19;9.00;88.30
13798;DHT22;6970;51.340;3.240;2023-01-19T15:15:46;8.90;88.40
13798;DHT22;6970;51.340;3.240;2023-01-19T15:18:19;8.80;88.60
13798;DHT22;6970;51.340;3.240;2023-01-19T15:20:47;8.80;88.80
13798;DHT22;6970;51.340;3.240;2023-01-19T15:23:14;8.80;89.00
13798;DHT22;6970;51.340;3.240;2023-01-19T15:25:44;8.70;88.90
13798;DHT22;6970;51.340;3.240;2023-01-19T15:28:18;8.60;88.80
13798;DHT22;6970;51.340;3.240;2023-01-19T15:30:45;8.60;89.10
13798;DHT22;6970;51.340;3.240;2023-01-19T15:33:20;8.50;89.30
13798;DHT22;6970;51.340;3.240;2023-01-19T15:35:48;8.40;89.60
13798;DHT22;6970;51.340;3.240;2023-01-19T15:38:15;8.30;89.90
13798;DHT22;6970;51.340;3.240;2023-01-19T15:40:46;8.30;90.10
13798;DHT22;6970;51.340;3.240;2023-01-19T15:43:17;8.20;90.20
13798;DHT22;6970;51.340;3.240;2023-01-19T15:45:52;8.10;90.30
13798;DHT22;6970;51.340;3.240;2023-01-19T15:48:22;8.00;90.60
13798;DHT22;6970;51.340;3.240;2023-01-19T15:50:49;8.00;90.80
13798;DHT22;6970;51.340;3.240;2023-01-19T15:53:18;7.90;91.00
13798;DHT22;6970;51.340;3.240;2023-01-19T15:55:52;7.90;91.20
13798;DHT22;6970;51.340;3.240;2023-01-19T15:58:25;7.80;91.40
13798;DHT22;6970;51.340;3.240;2023-01-19T16:00:54;7.70;91.60
13798;DHT22;6970;51.340;3.240;2023-01-19T16:03:22;7.70;91.70
13798;DHT22;6970;51.340;3.240;2023-01-19T16:05:49;7.70;91.80
13798;DHT22;6970;51.340;3.240;2023-01-19T16:08:16;7.60;92.30
13798;DHT22;6970;51.340;3.240;2023-01-19T16:10:43;7.50;92.90
13798;DHT22;6970;51.340;3.240;2023-01-19T16:13:13;7.40;92.80
13798;DHT22;6970;51.340;3.240;2023-01-19T16:15:39;7.40;93.00
13798;DHT22;6970;51.340;3.240;2023-01-19T16:18:08;7.40;93.00
13798;DHT22;6970;51.340;3.240;2023-01-19T16:20:38;7.30;93.20
13798;DHT22;6970;51.340;3.240;2023-01-19T16:23:05;7.30;93.20
13798;DHT22;6970;51.340;3.240;2023-01-19T16:25:41;7.30;93.40
13798;DHT22;6970;51.340;3.240;2023-01-19T16:28:08;7.20;93.50
13798;DHT22;6970;51.340;3.240;2023-01-19T16:30:37;7.20;93.50
13798;DHT22;6970;51.340;3.240;2023-01-19T16:33:04;7.10;93.60
13798;DHT22;6970;51.340;3.240;2023-01-19T16:35:31;7.10;93.70
13798;DHT22;6970;51.340;3.240;2023-01-19T16:37:58;7.00;93.80
13798;DHT22;6970;51.340;3.240;2023-01-19T16:40:25;7.00;93.70
13798;DHT22;6970;51.340;3.240;2023-01-19T16:42:52;7.00;93.80
13798;DHT22;6970;51.340;3.240;2023-01-19T16:45:19;6.90;93.80
13798;DHT22;6970;51.340;3.240;2023-01-19T16:47:46;6.90;93.90
13798;DHT22;6970;51.340;3.240;2023-01-19T16:50:16;6.90;94.10
13798;DHT22;6970;51.340;3.240;2023-01-19T16:52:43;6.80;94.20
13798;DHT22;6970;51.340;3.240;2023-01-19T16:55:11;6.80;94.30
13798;DHT22;6970;51.340;3.240;2023-01-19T16:57:42;6.70;94.40
13798;DHT22;6970;51.340;3.240;2023-01-19T17:00:11;6.70;94.50
13798;DHT22;6970;51.340;3.240;2023-01-19T17:02:39;6.70;94.60
13798;DHT22;6970;51.340;3.240;2023-01-19T17:05:06;6.70;94.60
13798;DHT22;6970;51.340;3.240;2023-01-19T17:07:47;6.60;94.60
13798;DHT22;6970;51.340;3.240;2023-01-19T17:10:14;6.60;94.70
13798;DHT22;6970;51.340;3.240;2023-01-19T17:12:43;6.60;94.80
13798;DHT22;6970;51.340;3.240;2023-01-19T17:15:10;6.60;94.90
13798;DHT22;6970;51.340;3.240;2023-01-19T17:17:39;6.60;95.10
13798;DHT22;6970;51.340;3.240;2023-01-19T17:20:08;6.60;95.10
13798;DHT22;6970;51.340;3.240;2023-01-19T17:22:36;6.50;95.20
13798;DHT22;6970;51.340;3.240;2023-01-19T17:25:07;6.50;95.30
13798;DHT22;6970;51.340;3.240;2023-01-19T17:27:34;6.50;95.60
13798;DHT22;6970;51.340;3.240;2023-01-19T17:30:03;6.40;95.90
13798;DHT22;6970;51.340;3.240;2023-01-19T17:32:30;6.30;96.10
13798;DHT22;6970;51.340;3.240;2023-01-19T17:34:59;6.20;96.20
13798;DHT22;6970;51.340;3.240;2023-01-19T17:37:28;6.10;96.70
13798;DHT22;6970;51.340;3.240;2023-01-19T17:39:55;6.00;96.90
13798;DHT22;6970;51.340;3.240;2023-01-19T17:42:25;6.00;97.00
13798;DHT22;6970;51.340;3.240;2023-01-19T17:44:53;5.90;97.30
13798;DHT22;6970;51.340;3.240;2023-01-19T17:47:20;5.80;97.50